createdAt,value
2023-02-11T00:00:25.199Z,6.93
2023-02-11T00:02:52.323Z,7.32
2023-02-11T00:05:19.585Z,6.82
2023-02-11T00:07:46.775Z,6.45
2023-02-11T00:10:14.086Z,5.63
2023-02-11T00:12:42.666Z,7.07
2023-02-11T00:15:10.600Z,6.28
2023-02-11T00:17:37.740Z,7.00
2023-02-11T00:20:07.923Z,6.28
2023-02-11T00:22:35.486Z,6.82
2023-02-11T00:25:02.914Z,5.28
2023-02-11T00:27:30.494Z,7.00
2023-02-11T00:29:57.762Z,6.88
2023-02-11T00:32:24.997Z,7.28
2023-02-11T00:34:55.489Z,6.43
2023-02-11T00:37:22.935Z,6.30
2023-02-11T00:39:50.345Z,6.38
2023-02-11T00:42:17.654Z,4.97
2023-02-11T00:44:45.687Z,6.80
2023-02-11T00:47:12.940Z,6.53
2023-02-11T00:49:40.482Z,6.43
2023-02-11T00:52:07.608Z,6.13
2023-02-11T00:54:35.086Z,6.18
2023-02-11T00:57:02.407Z,6.55
2023-02-11T00:59:29.692Z,5.30
2023-02-11T01:01:56.833Z,5.88
2023-02-11T01:04:24.181Z,7.22
2023-02-11T01:06:52.618Z,5.40
2023-02-11T01:09:21.256Z,6.90
2023-02-11T01:11:48.679Z,7.43
2023-02-11T01:14:15.990Z,6.95
2023-02-11T01:16:43.320Z,6.88
2023-02-11T01:19:10.527Z,7.25
2023-02-11T01:21:37.653Z,6.85
2023-02-11T01:24:05.009Z,7.00
2023-02-11T01:26:32.126Z,7.93
2023-02-11T01:29:01.054Z,7.57
2023-02-11T01:31:28.465Z,6.47
2023-02-11T01:33:55.710Z,7.72
2023-02-11T01:36:22.965Z,7.43
2023-02-11T01:38:50.099Z,7.40
2023-02-11T01:41:20.814Z,7.25
2023-02-11T01:43:50.530Z,8.75
2023-02-11T01:46:34.211Z,7.00
2023-02-11T01:49:07.167Z,8.07
2023-02-11T01:51:43.912Z,6.53
2023-02-11T01:54:33.862Z,6.05
2023-02-11T01:57:21.900Z,6.68
2023-02-11T02:00:07.938Z,6.15
2023-02-11T02:02:49.024Z,8.52
2023-02-11T02:08:00.774Z,8.95
2023-02-11T02:10:29.258Z,8.60
2023-02-11T02:12:56.651Z,8.50
2023-02-11T02:15:36.466Z,6.95
2023-02-11T02:18:25.373Z,8.95
2023-02-11T02:21:17.023Z,8.48
2023-02-11T02:23:53.071Z,8.45
2023-02-11T02:26:29.501Z,7.15
2023-02-11T02:29:19.737Z,7.75
2023-02-11T02:32:17.503Z,9.57
2023-02-11T02:34:46.867Z,7.97
2023-02-11T02:37:34.633Z,8.90
2023-02-11T02:40:08.012Z,7.32
2023-02-11T02:42:36.233Z,9.48
2023-02-11T02:45:03.937Z,7.57
2023-02-11T02:47:31.110Z,9.20
2023-02-11T02:49:58.603Z,8.63
2023-02-11T02:53:06.300Z,9.90
2023-02-11T02:55:54.371Z,8.85
2023-02-11T02:58:27.477Z,8.07
2023-02-11T03:01:27.225Z,9.00
2023-02-11T03:04:13.385Z,10.18
2023-02-11T03:06:48.701Z,9.82
2023-02-11T03:09:31.553Z,8.82
2023-02-11T03:12:00.743Z,9.15
2023-02-11T03:14:30.223Z,8.77
2023-02-11T03:17:01.434Z,8.25
2023-02-11T03:19:37.680Z,8.20
2023-02-11T03:22:11.742Z,9.70
2023-02-11T03:24:41.490Z,8.93
2023-02-11T03:27:25.967Z,8.05
2023-02-11T03:30:07.732Z,9.02
2023-02-11T03:32:44.097Z,8.95
2023-02-11T03:35:27.337Z,10.02
2023-02-11T03:38:07.622Z,10.77
2023-02-11T03:40:40.805Z,9.75
2023-02-11T03:43:12.697Z,9.15
2023-02-11T03:45:40.693Z,9.38
2023-02-11T03:48:14.777Z,10.30
2023-02-11T03:50:43.675Z,8.90
2023-02-11T03:53:12.563Z,11.27
2023-02-11T03:55:42.395Z,10.15
2023-02-11T03:58:09.852Z,9.88
2023-02-11T04:00:41.188Z,9.77
2023-02-11T04:03:09.713Z,9.87
2023-02-11T04:05:37.786Z,9.32
2023-02-11T04:08:05.641Z,9.70
2023-02-11T04:10:33.210Z,8.90
2023-02-11T04:13:00.401Z,7.13
2023-02-11T04:15:27.819Z,8.60
2023-02-11T04:17:56.140Z,10.32
2023-02-11T04:20:23.251Z,9.50
2023-02-11T04:22:50.476Z,10.00
2023-02-11T04:25:17.827Z,8.93
2023-02-11T04:27:45.006Z,8.63
2023-02-11T04:30:12.884Z,6.88
2023-02-11T04:32:40.120Z,8.43
2023-02-11T04:35:07.598Z,7.38
2023-02-11T04:37:35.719Z,7.97
2023-02-11T04:40:03.901Z,9.40
2023-02-11T04:42:31.117Z,7.65
2023-02-11T04:44:58.296Z,7.53
2023-02-11T04:47:25.490Z,8.10
2023-02-11T04:49:52.597Z,7.05
2023-02-11T04:52:19.724Z,7.03
2023-02-11T04:54:46.896Z,7.90
2023-02-11T04:57:14.145Z,8.05
2023-02-11T04:59:41.504Z,8.73
2023-02-11T05:02:08.704Z,8.02
2023-02-11T05:04:35.947Z,8.25
2023-02-11T05:07:03.165Z,7.82
2023-02-11T05:09:30.341Z,7.03
2023-02-11T05:11:57.522Z,6.53
2023-02-11T05:14:24.774Z,7.30
2023-02-11T05:16:52.165Z,5.88
2023-02-11T05:19:19.426Z,9.32
2023-02-11T05:22:01.456Z,6.82
2023-02-11T05:24:30.315Z,8.30
2023-02-11T05:26:57.472Z,7.18
2023-02-11T05:29:24.634Z,7.93
2023-02-11T05:31:51.861Z,7.22
2023-02-11T05:34:19.036Z,7.18
2023-02-11T05:36:46.278Z,6.65
2023-02-11T05:39:13.411Z,6.53
2023-02-11T05:41:40.619Z,6.38
2023-02-11T05:44:07.863Z,7.45
2023-02-11T05:46:35.058Z,8.40
2023-02-11T05:49:02.303Z,7.53
2023-02-11T05:51:29.473Z,8.73
2023-02-11T05:53:56.668Z,6.72
2023-02-11T05:56:23.864Z,6.55
2023-02-11T05:58:51.104Z,5.43
2023-02-11T06:01:18.310Z,6.93
2023-02-11T06:03:45.495Z,6.15
2023-02-11T06:06:12.985Z,6.40
2023-02-11T06:08:40.332Z,5.88
2023-02-11T06:11:07.715Z,6.40
2023-02-11T06:13:36.042Z,6.40
2023-02-11T06:16:03.782Z,7.95
2023-02-11T06:18:32.301Z,5.65
2023-02-11T06:21:00.067Z,5.97
2023-02-11T06:23:30.251Z,5.53
2023-02-11T06:26:02.447Z,5.22
2023-02-11T06:28:31.489Z,6.30
2023-02-11T06:30:59.659Z,5.80
2023-02-11T06:33:26.866Z,5.88
2023-02-11T06:35:54.010Z,5.95
2023-02-11T06:38:21.136Z,5.75
2023-02-11T06:40:49.594Z,7.35
2023-02-11T06:43:17.144Z,5.78
2023-02-11T06:45:44.724Z,5.55
2023-02-11T06:48:11.959Z,5.50
2023-02-11T06:50:39.192Z,5.03
2023-02-11T06:53:06.330Z,5.65
2023-02-11T06:55:35.641Z,4.95
2023-02-11T06:58:03.064Z,5.20
2023-02-11T07:00:30.421Z,4.47
2023-02-11T07:02:57.811Z,6.03
2023-02-11T07:05:25.109Z,5.93
2023-02-11T07:07:52.268Z,6.50
2023-02-11T07:10:19.483Z,5.80
2023-02-11T07:12:46.785Z,5.68
2023-02-11T07:15:14.012Z,5.15
2023-02-11T07:17:41.296Z,6.03
2023-02-11T07:20:09.646Z,5.68
2023-02-11T07:22:37.427Z,5.53
2023-02-11T07:25:04.856Z,4.50
2023-02-11T07:27:32.109Z,5.38
2023-02-11T07:29:59.431Z,4.07
2023-02-11T07:32:26.679Z,4.30
2023-02-11T07:34:53.919Z,4.93
2023-02-11T07:37:21.303Z,5.30
2023-02-11T07:39:48.818Z,4.25
2023-02-11T07:42:16.064Z,4.47
2023-02-11T07:44:43.292Z,4.50
2023-02-11T07:47:10.479Z,3.92
2023-02-11T07:49:38.062Z,4.43
2023-02-11T07:52:05.291Z,3.78
2023-02-11T07:54:32.462Z,3.55
2023-02-11T07:56:59.695Z,3.45
2023-02-11T07:59:27.567Z,3.75
2023-02-11T08:01:54.811Z,4.28
2023-02-11T08:04:22.057Z,3.63
2023-02-11T08:06:49.282Z,4.15
2023-02-11T08:09:17.049Z,3.55
2023-02-11T08:11:44.723Z,4.30
2023-02-11T08:14:12.572Z,3.58
2023-02-11T08:16:40.370Z,3.58
2023-02-11T08:19:13.036Z,3.10
2023-02-11T08:21:40.624Z,3.92
2023-02-11T08:24:08.376Z,3.95
2023-02-11T08:26:36.664Z,3.42
2023-02-11T08:29:08.515Z,2.80
2023-02-11T08:31:39.424Z,2.67
2023-02-11T08:34:07.392Z,2.72
2023-02-11T08:36:36.711Z,2.17
2023-02-11T08:39:19.355Z,3.25
2023-02-11T08:41:53.424Z,2.25
2023-02-11T08:44:21.758Z,2.38
2023-02-11T08:46:49.498Z,2.60
2023-02-11T08:49:16.786Z,2.63
2023-02-11T08:51:44.835Z,2.40
2023-02-11T08:54:12.762Z,2.72
2023-02-11T08:56:40.358Z,2.65
2023-02-11T08:59:09.475Z,2.70
2023-02-11T09:01:37.020Z,2.75
2023-02-11T09:04:04.361Z,2.13
2023-02-11T09:06:33.719Z,2.10
2023-02-11T09:09:01.184Z,2.40
2023-02-11T09:11:32.373Z,2.83
2023-02-11T09:13:59.981Z,2.05
2023-02-11T09:16:30.700Z,1.92
2023-02-11T09:19:00.568Z,2.42
2023-02-11T09:21:28.665Z,1.90
2023-02-11T09:23:56.513Z,1.60
2023-02-11T09:26:28.425Z,2.88
2023-02-11T09:28:56.205Z,1.95
2023-02-11T09:31:25.532Z,2.88
2023-02-11T09:33:56.668Z,1.95
2023-02-11T09:36:29.520Z,2.58
2023-02-11T09:38:59.852Z,1.90
2023-02-11T09:42:04.365Z,2.00
2023-02-11T09:44:37.057Z,2.05
2023-02-11T09:47:15.192Z,2.42
2023-02-11T09:49:48.858Z,2.00
2023-02-11T09:52:30.754Z,2.15
2023-02-11T09:55:00.469Z,2.30
2023-02-11T09:57:35.738Z,1.73
2023-02-11T10:00:32.711Z,2.10
2023-02-11T10:03:27.020Z,2.08
2023-02-11T10:06:19.688Z,2.00
2023-02-11T10:11:39.001Z,2.08
2023-02-11T10:14:43.071Z,1.50
2023-02-11T10:17:19.557Z,2.78
2023-02-11T10:19:52.791Z,2.35
2023-02-11T10:22:38.047Z,1.98
2023-02-11T10:25:27.529Z,2.10
2023-02-11T10:27:59.640Z,1.92
2023-02-11T10:30:32.548Z,1.88
2023-02-11T10:33:21.510Z,2.28
2023-02-11T10:35:49.077Z,2.50
2023-02-11T10:38:16.450Z,1.92
2023-02-11T10:40:44.251Z,2.33
2023-02-11T10:43:17.542Z,1.63
2023-02-11T10:45:51.377Z,1.83
2023-02-11T10:48:43.301Z,1.90
2023-02-11T10:51:14.706Z,2.05
2023-02-11T10:53:42.387Z,2.08
2023-02-11T10:56:14.445Z,2.22
2023-02-11T10:58:53.926Z,2.22
2023-02-11T11:01:24.619Z,1.98
2023-02-11T11:03:53.155Z,2.90
2023-02-11T11:06:33.744Z,2.03
2023-02-11T11:09:01.278Z,2.35
2023-02-11T11:11:28.541Z,1.42
2023-02-11T11:13:59.277Z,1.95
2023-02-11T11:16:29.065Z,1.70
2023-02-11T11:19:08.461Z,1.40
2023-02-11T11:21:46.871Z,1.83
2023-02-11T11:24:31.482Z,1.45
2023-02-11T11:27:01.981Z,2.10
2023-02-11T11:29:32.316Z,2.20
2023-02-11T11:32:06.569Z,1.55
2023-02-11T11:34:49.042Z,2.28
2023-02-11T11:37:30.791Z,1.67
2023-02-11T11:40:09.982Z,1.67
2023-02-11T11:42:39.863Z,1.73
2023-02-11T11:45:15.956Z,1.88
2023-02-11T11:48:18.486Z,2.75
2023-02-11T11:50:51.021Z,2.15
2023-02-11T11:53:44.206Z,1.60
2023-02-11T11:56:23.138Z,1.58
2023-02-11T11:58:50.806Z,2.90
2023-02-11T12:01:49.148Z,2.53
2023-02-11T12:04:33.656Z,1.73
2023-02-11T12:07:25.402Z,2.00
2023-02-11T12:09:58.660Z,2.00
2023-02-11T12:12:34.717Z,2.88
2023-02-11T12:15:13.922Z,2.28
2023-02-11T12:17:56.133Z,2.13
2023-02-11T12:20:30.362Z,2.00
2023-02-11T12:23:19.268Z,1.50
2023-02-11T12:25:51.587Z,2.20
2023-02-11T12:31:32.859Z,2.00
2023-02-11T12:34:37.731Z,1.95
2023-02-11T12:37:43.113Z,1.33
2023-02-11T12:40:23.142Z,2.83
2023-02-11T12:43:13.502Z,2.88
2023-02-11T12:45:53.760Z,2.10
2023-02-11T12:48:22.917Z,1.65
2023-02-11T12:51:08.627Z,1.98
2023-02-11T12:53:53.968Z,1.40
2023-02-11T12:56:46.407Z,2.20
2023-02-11T12:59:25.078Z,1.80
2023-02-11T13:01:53.556Z,2.20
2023-02-11T13:04:33.253Z,1.98
2023-02-11T13:07:06.399Z,2.00
2023-02-11T13:09:41.649Z,2.65
2023-02-11T13:12:31.876Z,1.60
2023-02-11T13:15:04.541Z,2.05
2023-02-11T13:17:48.414Z,2.47
2023-02-11T13:20:34.046Z,2.10
2023-02-11T13:23:31.702Z,2.17
2023-02-11T13:26:27.290Z,2.00
2023-02-11T13:29:25.239Z,3.05
2023-02-11T13:32:09.616Z,1.88
2023-02-11T13:34:43.128Z,2.75
2023-02-11T13:37:21.558Z,1.88
2023-02-11T13:40:03.795Z,2.00
2023-02-11T13:42:34.436Z,2.10
2023-02-11T13:45:01.847Z,2.58
2023-02-11T13:47:34.812Z,2.30
2023-02-11T13:50:06.325Z,1.67
2023-02-11T13:52:38.125Z,2.15
2023-02-11T13:55:24.166Z,1.90
2023-02-11T13:58:06.387Z,2.35
2023-02-11T14:00:36.858Z,2.47
2023-02-11T14:03:31.784Z,1.73
2023-02-11T14:06:26.752Z,2.95
2023-02-11T14:09:08.986Z,2.53
2023-02-11T14:11:42.273Z,2.10
2023-02-11T14:14:36.217Z,2.28
2023-02-11T14:17:09.342Z,2.50
2023-02-11T14:19:39.041Z,2.33
2023-02-11T14:22:43.405Z,2.33
2023-02-11T14:25:25.258Z,2.67
2023-02-11T14:28:16.465Z,3.50
2023-02-11T14:30:51.608Z,1.88
2023-02-11T14:33:56.831Z,2.65
2023-02-11T14:36:27.050Z,2.45
2023-02-11T14:39:12.760Z,2.80
2023-02-11T14:41:43.057Z,2.30
2023-02-11T14:44:27.899Z,2.40
2023-02-11T14:46:55.650Z,2.85
2023-02-11T14:49:28.668Z,2.58
2023-02-11T14:52:06.278Z,2.60
2023-02-11T14:54:35.101Z,2.35
2023-02-11T14:57:11.905Z,2.30
2023-02-11T14:59:39.708Z,3.10
2023-02-11T15:02:26.492Z,2.92
2023-02-11T15:04:55.332Z,3.60
2023-02-11T15:07:22.714Z,3.45
2023-02-11T15:09:53.069Z,3.13
2023-02-11T15:12:24.264Z,2.97
2023-02-11T15:14:55.618Z,3.55
2023-02-11T15:17:27.840Z,2.50
2023-02-11T15:19:59.375Z,3.17
2023-02-11T15:22:33.355Z,3.33
2023-02-11T15:25:10.432Z,2.80
2023-02-11T15:27:48.620Z,2.75
2023-02-11T15:30:34.027Z,2.83
2023-02-11T15:33:06.144Z,2.42
2023-02-11T15:35:37.080Z,2.80
2023-02-11T15:38:05.439Z,3.05
2023-02-11T15:40:35.609Z,2.80
2023-02-11T15:43:07.055Z,2.50
2023-02-11T15:45:39.010Z,3.80
2023-02-11T15:48:09.322Z,2.90
2023-02-11T15:50:40.708Z,3.15
2023-02-11T15:53:36.746Z,3.03
2023-02-11T15:56:37.673Z,3.00
2023-02-11T15:59:54.252Z,2.75
2023-02-11T16:02:22.345Z,2.35
2023-02-11T16:05:09.651Z,2.88
2023-02-11T16:07:49.877Z,3.30
2023-02-11T16:10:24.251Z,2.85
2023-02-11T16:13:17.769Z,3.03
2023-02-11T16:15:47.221Z,3.20
2023-02-11T16:18:37.385Z,2.97
2023-02-11T16:21:07.880Z,3.65
2023-02-11T16:23:38.007Z,3.25
2023-02-11T16:26:20.779Z,3.05
2023-02-11T16:28:48.184Z,3.45
2023-02-11T16:31:15.543Z,3.20
2023-02-11T16:33:42.780Z,3.58
2023-02-11T16:36:16.947Z,3.55
2023-02-11T16:38:44.211Z,3.30
2023-02-11T16:41:12.788Z,4.43
2023-02-11T16:43:40.443Z,3.92
2023-02-11T16:46:09.375Z,4.07
2023-02-11T16:48:38.068Z,4.82
2023-02-11T16:51:08.181Z,9.02
2023-02-11T16:53:35.390Z,5.35
2023-02-11T16:56:02.601Z,5.07
2023-02-11T16:58:30.011Z,4.05
2023-02-11T17:00:57.567Z,4.47
2023-02-11T17:03:29.601Z,4.28
2023-02-11T17:05:57.494Z,4.28
2023-02-11T17:08:24.741Z,4.38
2023-02-11T17:10:52.269Z,5.30
2023-02-11T17:13:19.761Z,4.15
2023-02-11T17:15:46.936Z,3.85
2023-02-11T17:18:14.620Z,5.05
2023-02-11T17:20:42.162Z,4.40
2023-02-11T17:23:09.421Z,3.88
2023-02-11T17:25:40.713Z,3.88
2023-02-11T17:28:09.333Z,3.70
2023-02-11T17:30:36.530Z,3.58
2023-02-11T17:33:03.843Z,3.30
2023-02-11T17:35:31.039Z,3.17
2023-02-11T17:37:59.309Z,3.90
2023-02-11T17:40:26.680Z,3.58
2023-02-11T17:42:53.823Z,3.40
2023-02-11T17:45:22.350Z,3.53
2023-02-11T17:47:49.816Z,4.00
2023-02-11T17:50:17.364Z,4.50
2023-02-11T17:52:44.763Z,5.15
2023-02-11T17:55:12.181Z,4.25
2023-02-11T17:57:39.842Z,4.82
2023-02-11T18:00:08.609Z,4.43
2023-02-11T18:02:42.128Z,5.38
2023-02-11T18:05:09.512Z,5.18
2023-02-11T18:07:36.859Z,4.75
2023-02-11T18:10:06.853Z,3.63
2023-02-11T18:12:34.251Z,3.63
2023-02-11T18:15:01.619Z,3.92
2023-02-11T18:17:28.926Z,4.28
2023-02-11T18:19:57.331Z,5.53
2023-02-11T18:22:25.795Z,4.95
2023-02-11T18:24:54.461Z,4.90
2023-02-11T18:27:22.509Z,3.33
2023-02-11T18:29:50.182Z,3.65
2023-02-11T18:32:17.386Z,3.28
2023-02-11T18:34:44.579Z,4.53
2023-02-11T18:37:13.434Z,3.60
2023-02-11T18:39:40.997Z,4.03
2023-02-11T18:42:08.923Z,3.78
2023-02-11T18:44:36.724Z,3.90
2023-02-11T18:47:04.325Z,4.10
2023-02-11T18:49:33.156Z,3.55
2023-02-11T18:52:00.319Z,4.15
2023-02-11T18:54:27.528Z,4.05
2023-02-11T18:56:54.716Z,3.97
2023-02-11T18:59:21.920Z,3.30
2023-02-11T19:01:49.416Z,3.90
2023-02-11T19:04:19.950Z,3.50
2023-02-11T19:06:49.511Z,3.45
2023-02-11T19:09:18.728Z,4.22
2023-02-11T19:11:50.369Z,3.72
2023-02-11T19:14:26.848Z,3.80
2023-02-11T19:16:56.600Z,3.97
2023-02-11T19:19:28.369Z,4.75
2023-02-11T19:21:56.903Z,5.20
2023-02-11T19:24:25.224Z,5.35
2023-02-11T19:26:55.314Z,4.53
2023-02-11T19:29:22.561Z,5.75
2023-02-11T19:31:50.066Z,5.40
2023-02-11T19:34:19.954Z,5.88
2023-02-11T19:36:48.088Z,6.68
2023-02-11T19:39:15.586Z,6.30
2023-02-11T19:41:43.390Z,6.80
2023-02-11T19:44:10.744Z,7.88
2023-02-11T19:46:41.024Z,7.68
2023-02-11T19:49:10.102Z,8.48
2023-02-11T19:51:39.476Z,7.57
2023-02-11T19:54:07.284Z,9.10
2023-02-11T19:56:35.044Z,7.95
2023-02-11T19:59:03.279Z,6.32
2023-02-11T20:01:31.055Z,7.80
2023-02-11T20:03:58.400Z,7.90
2023-02-11T20:06:28.514Z,7.80
2023-02-11T20:09:07.650Z,9.45
2023-02-11T20:11:35.307Z,8.27
2023-02-11T20:14:03.687Z,8.35
2023-02-11T20:16:47.069Z,7.40
2023-02-11T20:19:18.394Z,8.25
2023-02-11T20:21:48.667Z,7.65
2023-02-11T20:24:17.801Z,8.32
2023-02-11T20:26:47.056Z,10.45
2023-02-11T20:29:16.547Z,8.82
2023-02-11T20:31:44.100Z,8.43
2023-02-11T20:34:12.529Z,7.45
2023-02-11T20:36:40.684Z,9.75
2023-02-11T20:39:08.917Z,10.30
2023-02-11T20:41:40.023Z,9.68
2023-02-11T20:44:10.106Z,8.05
2023-02-11T20:46:40.172Z,9.85
2023-02-11T20:49:09.476Z,9.25
2023-02-11T20:51:37.520Z,12.90
2023-02-11T20:54:06.403Z,12.85
2023-02-11T20:56:36.077Z,10.60
2023-02-11T20:59:04.751Z,11.13
2023-02-11T21:01:40.806Z,13.80
2023-02-11T21:04:14.358Z,10.32
2023-02-11T21:06:44.375Z,10.95
2023-02-11T21:09:14.657Z,10.73
2023-02-11T21:11:42.949Z,10.10
2023-02-11T21:14:11.175Z,10.02
2023-02-11T21:16:38.891Z,10.68
2023-02-11T21:19:06.737Z,14.43
2023-02-11T21:21:37.098Z,23.73
2023-02-11T21:24:05.698Z,16.52
2023-02-11T21:26:33.171Z,17.60
2023-02-11T21:29:00.275Z,13.48
2023-02-11T21:31:30.088Z,13.43
2023-02-11T21:33:59.492Z,12.60
2023-02-11T21:36:28.970Z,14.25
2023-02-11T21:38:56.313Z,11.80
2023-02-11T21:41:24.895Z,12.95
2023-02-11T21:43:52.617Z,12.32
2023-02-11T21:46:21.313Z,13.07
2023-02-11T21:48:49.048Z,10.50
2023-02-11T21:51:22.544Z,12.50
2023-02-11T21:53:54.745Z,13.45
2023-02-11T21:56:22.978Z,11.73
2023-02-11T21:58:53.620Z,12.18
2023-02-11T22:01:26.728Z,11.77
2023-02-11T22:03:54.340Z,11.88
2023-02-11T22:06:26.377Z,10.70
2023-02-11T22:08:55.656Z,15.27
2023-02-11T22:11:23.555Z,10.65
2023-02-11T22:13:55.445Z,11.93
2023-02-11T22:16:23.365Z,15.18
2023-02-11T22:18:51.551Z,13.43
2023-02-11T22:21:21.589Z,13.65
2023-02-11T22:23:49.623Z,11.88
2023-02-11T22:26:19.001Z,13.63
2023-02-11T22:28:46.869Z,12.70
2023-02-11T22:31:18.872Z,13.77
2023-02-11T22:33:46.699Z,14.18
2023-02-11T22:36:20.113Z,14.20
2023-02-11T22:38:48.210Z,14.45
2023-02-11T22:41:16.024Z,13.43
2023-02-11T22:43:44.121Z,13.52
2023-02-11T22:46:14.024Z,13.13
2023-02-11T22:48:41.540Z,12.98
2023-02-11T22:51:14.482Z,13.15
2023-02-11T22:53:43.758Z,14.63
2023-02-11T22:56:15.520Z,12.63
2023-02-11T22:58:43.562Z,12.70
2023-02-11T23:01:11.318Z,12.48
2023-02-11T23:03:39.311Z,15.80
2023-02-11T23:06:08.369Z,14.02
2023-02-11T23:08:35.730Z,14.43
2023-02-11T23:11:08.623Z,13.05
2023-02-11T23:13:37.985Z,13.57
2023-02-11T23:16:12.096Z,11.88
2023-02-11T23:18:43.277Z,12.02
2023-02-11T23:21:21.221Z,11.68
2023-02-11T23:23:49.906Z,12.15
2023-02-11T23:26:18.529Z,12.13
2023-02-11T23:28:46.520Z,13.35
2023-02-11T23:31:21.115Z,12.07
2023-02-11T23:33:49.558Z,12.18
2023-02-11T23:36:18.308Z,11.30
2023-02-11T23:38:45.868Z,10.13
2023-02-11T23:41:13.429Z,11.38
2023-02-11T23:43:40.743Z,10.63
2023-02-11T23:46:08.466Z,12.48
2023-02-11T23:48:40.508Z,13.38
2023-02-11T23:51:09.828Z,13.32
2023-02-11T23:53:38.275Z,13.30
2023-02-11T23:56:10.975Z,12.77
2023-02-11T23:58:38.348Z,13.38
